Time;durP1;ratioP1;P1;durP2;ratioP2;P2;SDS_P1;SDS_P2;PMS_P1;PMS_P2;Temp;Humidity;BMP_temperature;BMP_pressure;BME280_temperature;BME280_humidity;BME280_pressure;Samples;Min_cycle;Max_cycle;Signal;HPM_P1;HPM_P2
2022/07/08 00:02:20;;;;;;;17.13;5.00;;;18.50;58.40;;;;;;5050345;28;20206;-93
2022/07/08 00:04:48;;;;;;;12.03;3.70;;;18.40;58.60;;;;;;5053448;28;20197;-89
2022/07/08 00:07:18;;;;;;;11.40;4.40;;;18.40;58.70;;;;;;5052928;28;20313;-90
2022/07/08 00:09:45;;;;;;;13.60;4.70;;;18.40;59.00;;;;;;5053257;28;20931;-92
2022/07/08 00:12:13;;;;;;;8.17;3.33;;;18.30;59.00;;;;;;5050014;28;20742;-89
2022/07/08 00:14:41;;;;;;;12.67;4.60;;;18.30;59.10;;;;;;5037405;28;20297;-92
2022/07/08 00:17:10;;;;;;;13.60;4.03;;;18.30;59.20;;;;;;5046416;28;20206;-93
2022/07/08 00:19:38;;;;;;;9.47;2.90;;;18.20;58.90;;;;;;5034481;28;20252;-92
2022/07/08 00:22:06;;;;;;;10.60;3.50;;;18.20;59.00;;;;;;5052672;28;20207;-89
2022/07/08 00:24:34;;;;;;;12.67;4.33;;;18.20;59.20;;;;;;5046353;28;20229;-91
2022/07/08 00:27:01;;;;;;;5.53;2.43;;;18.10;59.30;;;;;;5048187;28;20249;-92
2022/07/08 00:29:29;;;;;;;11.27;3.90;;;18.10;59.50;;;;;;5053050;28;20666;-89
2022/07/08 00:32:02;;;;;;;11.83;3.83;;;18.10;60.40;;;;;;5052922;28;20593;-90
2022/07/08 00:34:31;;;;;;;10.63;3.57;;;18.10;59.90;;;;;;5047441;28;20208;-89
2022/07/08 00:36:59;;;;;;;10.10;3.63;;;18.00;59.50;;;;;;5046518;28;20205;-89
2022/07/08 00:39:28;;;;;;;14.37;3.57;;;18.00;59.50;;;;;;5038794;28;20254;-92
2022/07/08 00:41:59;;;;;;;14.73;3.87;;;18.00;59.60;;;;;;5051089;28;20232;-92
2022/07/08 00:44:27;;;;;;;11.57;3.63;;;17.90;59.70;;;;;;5045562;28;20263;-88
2022/07/08 00:46:58;;;;;;;9.20;3.67;;;17.90;59.80;;;;;;5033299;28;20204;-92
2022/07/08 00:49:26;;;;;;;9.03;3.00;;;17.90;60.00;;;;;;5046892;28;21001;-89
2022/07/08 00:51:55;;;;;;;9.97;3.50;;;17.80;60.70;;;;;;5052035;28;20650;-88
2022/07/08 00:54:24;;;;;;;12.27;3.80;;;17.80;60.00;;;;;;5046257;28;20983;-92
2022/07/08 00:56:52;;;;;;;11.47;3.43;;;17.80;59.80;;;;;;5041781;28;20828;-91
2022/07/08 00:59:23;;;;;;;11.63;3.87;;;17.80;59.90;;;;;;5052731;28;20331;-89
2022/07/08 01:01:57;;;;;;;13.00;3.53;;;17.80;60.30;;;;;;5051104;28;20206;-93
2022/07/08 01:04:25;;;;;;;14.13;4.50;;;17.70;60.50;;;;;;5050935;28;20240;-89
2022/07/08 01:06:53;;;;;;;9.87;3.40;;;17.70;60.40;;;;;;5053663;28;20233;-93
2022/07/08 01:09:21;;;;;;;8.87;3.27;;;17.60;60.40;;;;;;5052986;28;20216;-92
2022/07/08 01:11:49;;;;;;;11.73;4.27;;;17.60;60.50;;;;;;5052952;28;20654;-89
2022/07/08 01:14:16;;;;;;;13.90;4.43;;;17.60;60.90;;;;;;5045713;28;20222;-88
2022/07/08 01:16:47;;;;;;;12.63;4.13;;;17.60;60.60;;;;;;5056007;28;20261;-92
2022/07/08 01:19:14;;;;;;;16.67;4.70;;;17.60;60.70;;;;;;5052581;28;20268;-93
2022/07/08 01:21:44;;;;;;;10.63;3.77;;;17.60;60.50;;;;;;5050700;28;20221;-90
2022/07/08 01:24:11;;;;;;;12.47;4.20;;;17.50;60.80;;;;;;5049522;28;20243;-91
2022/07/08 01:26:38;;;;;;;15.43;4.63;;;17.50;60.80;;;;;;5049775;28;20243;-93
2022/07/08 01:29:05;;;;;;;17.93;5.70;;;17.50;60.80;;;;;;5048340;28;20738;-89
2022/07/08 01:31:34;;;;;;;10.77;2.90;;;17.40;60.70;;;;;;5048859;28;20295;-91
2022/07/08 01:34:01;;;;;;;13.13;3.90;;;17.40;61.00;;;;;;5060720;28;20200;-92
2022/07/08 01:36:29;;;;;;;8.57;3.00;;;17.40;61.20;;;;;;5056496;28;20293;-91
2022/07/08 01:38:58;;;;;;;8.83;2.77;;;17.40;61.30;;;;;;5033128;28;20209;-91
2022/07/08 01:41:26;;;;;;;12.67;4.33;;;17.30;61.40;;;;;;5031585;28;20237;-89
2022/07/08 01:43:53;;;;;;;8.07;3.30;;;17.30;61.40;;;;;;5047170;28;20229;-92
2022/07/08 01:46:20;;;;;;;16.17;3.97;;;17.30;61.20;;;;;;5051376;28;20254;-89
2022/07/08 01:48:48;;;;;;;8.10;2.90;;;17.30;61.10;;;;;;5052580;28;20287;-89
2022/07/08 01:51:15;;;;;;;8.30;3.07;;;17.30;61.00;;;;;;5049020;28;20687;-92
2022/07/08 01:53:42;;;;;;;11.83;3.90;;;17.20;60.80;;;;;;5048444;28;20208;-90
2022/07/08 01:56:11;;;;;;;16.10;4.23;;;17.20;60.80;;;;;;5047736;28;21203;-89
2022/07/08 01:58:38;;;;;;;16.93;4.40;;;17.20;61.10;;;;;;5049910;28;20214;-89
2022/07/08 02:01:06;;;;;;;9.47;3.47;;;17.20;61.10;;;;;;5045695;28;20204;-89
2022/07/08 02:03:35;;;;;;;11.27;3.60;;;17.10;61.10;;;;;;5047883;28;20329;-90
2022/07/08 02:06:06;;;;;;;8.77;3.47;;;17.10;60.90;;;;;;5042684;28;20201;-91
2022/07/08 02:08:33;;;;;;;16.60;4.97;;;17.10;61.20;;;;;;5047620;28;20253;-89
2022/07/08 02:13:45;;;;;;;9.40;3.30;;;17.00;61.10;;;;;;5050971;28;20562;-90
2022/07/08 02:16:13;;;;;;;11.43;4.03;;;16.90;61.20;;;;;;5047855;28;20206;-89
2022/07/08 02:18:40;;;;;;;10.50;3.57;;;16.90;61.10;;;;;;5048506;28;20278;-89
2022/07/08 02:21:10;;;;;;;8.13;2.70;;;16.90;61.20;;;;;;5049612;28;20214;-89
2022/07/08 02:23:38;;;;;;;10.03;3.63;;;16.80;61.20;;;;;;5051946;28;20285;-89
2022/07/08 02:26:06;;;;;;;11.30;3.60;;;16.80;61.50;;;;;;5044401;28;20196;-89
2022/07/08 02:28:33;;;;;;;11.13;3.73;;;16.70;61.30;;;;;;5050289;28;20212;-88
2022/07/08 02:31:01;;;;;;;10.70;3.43;;;16.70;61.50;;;;;;5049293;28;20270;-89
2022/07/08 02:33:29;;;;;;;10.27;3.33;;;16.70;62.00;;;;;;5048288;28;20982;-89
2022/07/08 02:35:56;;;;;;;20.83;6.23;;;16.60;62.10;;;;;;5048545;28;20237;-88
2022/07/08 02:38:24;;;;;;;14.27;3.83;;;16.60;62.20;;;;;;5047898;28;20938;-89
2022/07/08 02:40:52;;;;;;;13.20;4.53;;;16.60;62.10;;;;;;5040921;28;20200;-88
2022/07/08 02:43:20;;;;;;;15.80;4.77;;;16.60;62.10;;;;;;5043156;28;20239;-89
2022/07/08 02:45:47;;;;;;;9.87;3.70;;;16.50;62.00;;;;;;5048557;28;20196;-88
2022/07/08 02:48:17;;;;;;;12.70;4.23;;;16.50;62.00;;;;;;5047838;28;20703;-88
2022/07/08 02:50:46;;;;;;;15.13;4.87;;;16.40;62.20;;;;;;5044664;28;20207;-87
2022/07/08 02:53:13;;;;;;;11.40;3.93;;;16.40;62.30;;;;;;5043295;28;20199;-89
2022/07/08 02:55:40;;;;;;;8.73;3.00;;;16.40;61.90;;;;;;5035986;28;20201;-88
2022/07/08 02:58:09;;;;;;;16.97;5.13;;;16.40;61.90;;;;;;5040923;28;20256;-89
2022/07/08 03:00:40;;;;;;;10.00;3.50;;;16.30;62.30;;;;;;5046379;28;20254;-88
2022/07/08 03:03:07;;;;;;;16.27;5.07;;;16.30;62.20;;;;;;5044658;28;20256;-88
2022/07/08 03:05:36;;;;;;;13.03;4.17;;;16.30;62.20;;;;;;5028480;28;20255;-88
2022/07/08 03:08:06;;;;;;;12.10;3.87;;;16.30;62.60;;;;;;5040971;28;20255;-88
2022/07/08 03:10:34;;;;;;;8.63;3.60;;;16.20;62.70;;;;;;5046426;28;20230;-88
2022/07/08 03:13:02;;;;;;;14.17;3.67;;;16.20;62.90;;;;;;5046236;28;20747;-88
2022/07/08 03:15:30;;;;;;;9.93;3.07;;;16.20;63.00;;;;;;5053760;28;20207;-88
2022/07/08 03:17:57;;;;;;;12.13;4.27;;;16.20;62.90;;;;;;5055075;28;20747;-88
2022/07/08 03:20:24;;;;;;;14.63;4.63;;;16.10;62.90;;;;;;5053580;28;20210;-88
2022/07/08 03:22:52;;;;;;;17.37;5.00;;;16.10;62.90;;;;;;5047528;28;20923;-89
2022/07/08 03:25:24;;;;;;;16.27;4.83;;;16.10;63.20;;;;;;5054222;28;20713;-87
2022/07/08 03:27:52;;;;;;;9.53;4.33;;;16.10;63.60;;;;;;5054369;28;20660;-88
2022/07/08 03:30:19;;;;;;;9.80;3.43;;;16.10;63.80;;;;;;5050229;28;20211;-88
2022/07/08 03:32:46;;;;;;;19.27;5.57;;;16.10;63.60;;;;;;5060015;28;20241;-88
2022/07/08 03:35:15;;;;;;;13.70;4.80;;;16.00;63.40;;;;;;5067356;28;20192;-88
2022/07/08 03:37:43;;;;;;;11.33;4.13;;;16.00;63.50;;;;;;5040583;28;20298;-87
2022/07/08 03:42:57;;;;;;;11.57;4.47;;;16.10;64.00;;;;;;5045917;28;20277;-88
2022/07/08 03:45:25;;;;;;;28.30;8.27;;;16.00;63.70;;;;;;5027456;28;20236;-89
2022/07/08 03:47:52;;;;;;;22.17;6.63;;;16.10;64.00;;;;;;5047221;28;20208;-88
2022/07/08 03:50:19;;;;;;;13.43;5.13;;;16.00;63.70;;;;;;5044471;28;20211;-88
2022/07/08 03:52:47;;;;;;;12.30;4.43;;;16.00;63.70;;;;;;5049358;28;20224;-88
2022/07/08 03:55:15;;;;;;;16.53;5.47;;;16.00;63.90;;;;;;5049985;28;20287;-88
2022/07/08 03:57:53;;;;;;;11.10;4.03;;;16.00;64.20;;;;;;5051685;28;20257;-90
2022/07/08 04:00:21;;;;;;;13.80;5.03;;;16.00;64.30;;;;;;5050608;28;20464;-87
2022/07/08 04:02:49;;;;;;;18.33;6.47;;;16.00;64.90;;;;;;5059538;28;20653;-88
2022/07/08 04:05:16;;;;;;;10.43;4.43;;;16.00;64.20;;;;;;5044419;28;20731;-87
2022/07/08 04:07:45;;;;;;;16.83;4.87;;;15.90;64.00;;;;;;5036102;28;20237;-88
2022/07/08 04:10:12;;;;;;;14.17;4.90;;;16.00;64.20;;;;;;5050661;28;20203;-88
2022/07/08 04:12:41;;;;;;;9.57;4.07;;;15.90;64.10;;;;;;5051866;28;20235;-88
2022/07/08 04:15:10;;;;;;;9.87;4.67;;;15.90;64.20;;;;;;5050893;28;20254;-88
2022/07/08 04:17:41;;;;;;;19.40;5.40;;;15.90;64.20;;;;;;5031758;28;20694;-88
2022/07/08 04:20:10;;;;;;;9.93;4.27;;;15.90;64.30;;;;;;5037429;28;20252;-88
2022/07/08 04:22:43;;;;;;;12.30;4.83;;;15.90;64.30;;;;;;5051171;28;20242;-88
2022/07/08 04:25:12;;;;;;;12.67;5.40;;;15.90;64.70;;;;;;5052012;28;20929;-88
2022/07/08 04:27:39;;;;;;;15.80;5.23;;;15.80;64.40;;;;;;5050669;28;20659;-87
2022/07/08 04:30:08;;;;;;;13.33;4.80;;;15.80;64.40;;;;;;5036552;28;20661;-87
2022/07/08 04:32:37;;;;;;;14.23;5.73;;;15.80;64.70;;;;;;5037154;28;20281;-88
2022/07/08 04:35:04;;;;;;;18.17;5.43;;;15.80;64.80;;;;;;5037375;28;20234;-88
2022/07/08 04:37:31;;;;;;;14.57;5.77;;;15.70;64.80;;;;;;5044690;28;20314;-87
2022/07/08 04:40:01;;;;;;;15.63;5.47;;;15.80;65.00;;;;;;5056678;28;20208;-88
2022/07/08 04:42:29;;;;;;;10.37;4.67;;;15.80;65.30;;;;;;5052110;28;20704;-89
2022/07/08 04:44:56;;;;;;;14.50;5.90;;;15.80;65.40;;;;;;5041163;28;20759;-89
2022/07/08 04:47:25;;;;;;;12.20;5.27;;;15.80;65.40;;;;;;5059771;28;20210;-87
2022/07/08 04:49:52;;;;;;;13.97;5.97;;;15.80;65.80;;;;;;5060359;28;20229;-89
2022/07/08 04:52:19;;;;;;;15.47;6.10;;;15.80;65.60;;;;;;5056462;28;20206;-88
2022/07/08 04:54:52;;;;;;;10.50;4.80;;;15.80;66.50;;;;;;5052929;28;20660;-90
2022/07/08 04:57:20;;;;;;;15.43;5.13;;;15.90;66.30;;;;;;5048561;28;20288;-88
2022/07/08 04:59:47;;;;;;;14.57;5.57;;;15.80;66.00;;;;;;5052622;28;20196;-88
2022/07/08 05:02:14;;;;;;;10.10;5.13;;;15.90;66.10;;;;;;5048692;28;20690;-88
2022/07/08 05:04:44;;;;;;;12.37;5.43;;;15.90;66.20;;;;;;5049816;28;20248;-88
2022/07/08 05:07:11;;;;;;;20.57;7.30;;;15.90;66.60;;;;;;5049625;28;21041;-87
2022/07/08 05:09:38;;;;;;;11.43;5.30;;;15.90;66.40;;;;;;5071312;28;20211;-88
2022/07/08 05:12:06;;;;;;;18.07;7.50;;;16.00;66.70;;;;;;5066302;28;20250;-87
2022/07/08 05:14:33;;;;;;;19.50;7.63;;;16.00;67.00;;;;;;5049913;28;20303;-88
2022/07/08 05:17:01;;;;;;;17.03;6.83;;;16.00;66.90;;;;;;5049181;28;20200;-90
2022/07/08 05:19:28;;;;;;;16.40;7.27;;;16.10;67.20;;;;;;5049231;28;20295;-87
2022/07/08 05:21:57;;;;;;;15.70;7.13;;;16.10;67.20;;;;;;5045809;28;20204;-87
2022/07/08 05:24:25;;;;;;;22.03;7.10;;;16.10;67.40;;;;;;5049626;28;20249;-87
2022/07/08 05:26:53;;;;;;;14.43;6.97;;;16.20;67.50;;;;;;5047350;28;20218;-87
2022/07/08 05:29:23;;;;;;;25.40;8.63;;;16.20;67.40;;;;;;5048505;28;20679;-88
2022/07/08 05:31:53;;;;;;;17.13;7.30;;;16.30;67.90;;;;;;5055492;28;20288;-88
2022/07/08 05:34:26;;;;;;;24.60;9.50;;;16.30;67.80;;;;;;5047972;28;20445;-87
2022/07/08 05:36:54;;;;;;;15.93;6.80;;;16.30;67.80;;;;;;5055441;28;20215;-87
2022/07/08 05:39:23;;;;;;;24.77;8.60;;;16.40;68.00;;;;;;5047734;28;20726;-87
2022/07/08 05:41:54;;;;;;;13.33;6.33;;;16.40;68.30;;;;;;5049732;28;20266;-87
2022/07/08 05:44:21;;;;;;;24.13;9.60;;;16.50;68.10;;;;;;5047885;28;20204;-87
2022/07/08 05:46:51;;;;;;;13.57;6.43;;;16.50;68.20;;;;;;5032172;28;20747;-88
2022/07/08 05:49:18;;;;;;;16.73;8.33;;;16.60;68.50;;;;;;5044685;28;20277;-87
2022/07/08 05:51:45;;;;;;;20.10;7.93;;;16.60;68.80;;;;;;5049530;28;20693;-87
2022/07/08 05:54:13;;;;;;;14.20;5.93;;;16.70;69.00;;;;;;5051078;28;20586;-88
2022/07/08 05:56:41;;;;;;;20.73;7.17;;;16.80;69.90;;;;;;5051829;28;20635;-87
2022/07/08 05:59:08;;;;;;;14.40;6.37;;;16.80;69.30;;;;;;5052018;28;20561;-87
2022/07/08 06:01:37;;;;;;;18.47;7.27;;;16.90;69.20;;;;;;5051101;28;20209;-88
2022/07/08 06:04:05;;;;;;;13.80;6.53;;;16.90;69.40;;;;;;5040890;28;21017;-88
2022/07/08 06:06:32;;;;;;;22.57;8.93;;;17.00;69.50;;;;;;5046515;28;20227;-88
2022/07/08 06:09:00;;;;;;;16.20;6.47;;;17.10;69.50;;;;;;5055610;28;20664;-88
2022/07/08 06:11:28;;;;;;;13.37;6.13;;;17.10;69.60;;;;;;5046174;28;20604;-88
2022/07/08 06:13:56;;;;;;;13.47;6.50;;;17.20;69.70;;;;;;5047091;28;20210;-88
2022/07/08 06:16:24;;;;;;;18.40;7.20;;;17.30;69.90;;;;;;5041956;28;20224;-88
2022/07/08 06:18:51;;;;;;;19.27;6.87;;;17.40;70.10;;;;;;5046783;28;20216;-88
2022/07/08 06:21:18;;;;;;;21.53;7.30;;;17.40;70.00;;;;;;5047825;28;20569;-88
2022/07/08 06:23:45;;;;;;;17.80;6.57;;;17.50;70.10;;;;;;5057210;28;20197;-88
2022/07/08 06:26:12;;;;;;;14.97;6.63;;;17.60;70.20;;;;;;5054552;28;20225;-88
2022/07/08 06:28:39;;;;;;;15.40;7.00;;;17.70;70.40;;;;;;5048129;28;20215;-89
2022/07/08 06:31:08;;;;;;;11.67;6.00;;;17.70;70.50;;;;;;5048043;28;20284;-88
2022/07/08 06:33:35;;;;;;;16.97;7.07;;;17.80;70.80;;;;;;5048966;28;20205;-88
2022/07/08 06:36:02;;;;;;;14.97;6.57;;;17.90;70.70;;;;;;5046342;28;20758;-88
2022/07/08 06:38:30;;;;;;;17.27;6.37;;;18.00;70.90;;;;;;5047438;28;20252;-87
2022/07/08 06:40:57;;;;;;;18.77;7.33;;;18.10;71.20;;;;;;5046919;28;20238;-87
2022/07/08 06:43:25;;;;;;;20.53;7.20;;;18.20;71.10;;;;;;5047711;28;20210;-88
2022/07/08 06:45:52;;;;;;;24.97;7.80;;;18.30;71.50;;;;;;5046401;28;20671;-88
2022/07/08 06:48:20;;;;;;;15.13;5.33;;;18.30;71.00;;;;;;5046296;28;20275;-87
2022/07/08 06:50:48;;;;;;;18.13;7.27;;;18.40;71.20;;;;;;5047524;28;20729;-88
2022/07/08 06:53:15;;;;;;;11.50;4.50;;;18.60;71.00;;;;;;5042780;28;20213;-88
2022/07/08 06:55:42;;;;;;;15.17;4.50;;;18.60;70.60;;;;;;5050425;28;20211;-87
2022/07/08 06:58:09;;;;;;;9.73;3.87;;;18.70;70.50;;;;;;5046290;28;20340;-88
2022/07/08 07:00:36;;;;;;;10.83;3.73;;;18.80;70.60;;;;;;5047496;28;20704;-88
2022/07/08 07:03:03;;;;;;;8.37;3.30;;;18.90;70.80;;;;;;5046477;28;20261;-88
2022/07/08 07:05:32;;;;;;;12.40;3.53;;;19.00;71.30;;;;;;5046739;28;20238;-88
2022/07/08 07:07:59;;;;;;;8.63;2.73;;;19.10;70.50;;;;;;5047923;28;20211;-88
2022/07/08 07:10:26;;;;;;;9.40;3.10;;;19.20;70.60;;;;;;5043856;28;20689;-89
2022/07/08 07:12:53;;;;;;;11.27;3.77;;;19.30;70.50;;;;;;5043597;28;20687;-88
2022/07/08 07:15:20;;;;;;;11.77;3.10;;;19.40;70.40;;;;;;5042790;28;20294;-87
2022/07/08 07:17:47;;;;;;;17.20;5.30;;;19.50;70.40;;;;;;5047322;28;20629;-88
2022/07/08 07:20:14;;;;;;;15.13;4.37;;;19.50;69.90;;;;;;5039342;28;20826;-88
2022/07/08 07:22:43;;;;;;;16.23;5.10;;;19.60;69.60;;;;;;5051853;28;20203;-87
2022/07/08 07:25:10;;;;;;;9.00;3.37;;;19.70;69.30;;;;;;5048831;28;20290;-88
2022/07/08 07:27:37;;;;;;;10.13;3.70;;;19.80;69.00;;;;;;5045838;28;21136;-89
2022/07/08 07:30:05;;;;;;;18.07;5.80;;;19.90;69.00;;;;;;5045876;28;20204;-87
2022/07/08 07:32:32;;;;;;;13.80;5.07;;;19.90;68.90;;;;;;5042562;28;20312;-87
2022/07/08 07:35:00;;;;;;;15.90;5.60;;;20.00;68.90;;;;;;5042599;28;20263;-87
2022/07/08 07:37:27;;;;;;;13.33;4.43;;;20.10;68.70;;;;;;5055566;28;21113;-88
2022/07/08 07:39:55;;;;;;;8.73;3.60;;;20.20;68.70;;;;;;5052057;28;20224;-87
2022/07/08 07:42:22;;;;;;;11.43;3.27;;;20.30;68.80;;;;;;5051261;28;20204;-87
2022/07/08 07:44:49;;;;;;;13.43;4.07;;;20.40;68.80;;;;;;5041222;28;20208;-87
2022/07/08 07:47:16;;;;;;;8.20;3.53;;;20.40;68.10;;;;;;5047237;28;20211;-88
2022/07/08 07:49:43;;;;;;;16.47;5.67;;;20.50;68.20;;;;;;5045281;28;20200;-88
2022/07/08 07:52:10;;;;;;;10.00;3.67;;;20.60;68.30;;;;;;5048901;28;20311;-87
2022/07/08 07:54:40;;;;;;;9.10;3.60;;;20.70;68.20;;;;;;5049929;28;20664;-88
2022/07/08 07:57:10;;;;;;;11.50;4.40;;;20.70;68.00;;;;;;5044188;28;20712;-91
2022/07/08 07:59:37;;;;;;;12.03;3.47;;;20.80;68.10;;;;;;5044971;28;20278;-87
2022/07/08 08:02:04;;;;;;;10.33;2.97;;;20.90;67.70;;;;;;5050063;28;20655;-88
2022/07/08 08:04:31;;;;;;;14.10;4.67;;;21.00;66.90;;;;;;5045292;28;20745;-87
2022/07/08 08:06:58;;;;;;;7.60;2.67;;;21.10;66.80;;;;;;5040764;28;20691;-86
2022/07/08 08:09:26;;;;;;;17.20;5.43;;;21.20;66.00;;;;;;5053392;28;20200;-89
2022/07/08 08:11:53;;;;;;;12.60;3.67;;;21.20;65.20;;;;;;5045930;28;20212;-88
2022/07/08 08:14:22;;;;;;;19.33;5.87;;;21.30;65.20;;;;;;5045309;28;20210;-88
2022/07/08 08:16:49;;;;;;;13.20;4.73;;;21.40;64.90;;;;;;5048050;28;20200;-88
2022/07/08 08:19:16;;;;;;;15.83;5.40;;;21.40;64.80;;;;;;5041770;28;20599;-88
2022/07/08 08:21:43;;;;;;;10.53;3.40;;;21.50;64.70;;;;;;5046552;28;20592;-88
2022/07/08 08:24:10;;;;;;;12.83;4.33;;;21.60;64.50;;;;;;5045828;28;20232;-88
2022/07/08 08:26:37;;;;;;;11.00;4.20;;;21.70;64.20;;;;;;5049502;28;20323;-90
2022/07/08 08:29:04;;;;;;;10.53;4.03;;;21.70;63.70;;;;;;5042806;28;20278;-87
2022/07/08 08:31:33;;;;;;;8.27;3.43;;;21.80;63.40;;;;;;5049063;28;20246;-88
2022/07/08 08:34:00;;;;;;;7.27;3.00;;;21.90;63.00;;;;;;5046478;28;20214;-88
2022/07/08 08:36:27;;;;;;;8.80;3.03;;;22.00;63.00;;;;;;5049453;28;20240;-87
2022/07/08 08:38:54;;;;;;;11.60;4.20;;;22.10;63.30;;;;;;5051128;28;20303;-87
2022/07/08 08:41:23;;;;;;;7.70;3.00;;;22.20;62.80;;;;;;5049677;28;20291;-87
2022/07/08 08:43:53;;;;;;;9.70;3.57;;;22.30;62.80;;;;;;5036702;28;20293;-86
2022/07/08 08:46:24;;;;;;;10.80;4.33;;;22.50;62.80;;;;;;5036992;28;21116;-87
2022/07/08 08:48:57;;;;;;;5.23;2.03;;;22.60;62.00;;;;;;5039731;28;20214;-91
2022/07/08 08:51:26;;;;;;;4.27;1.90;;;22.80;61.80;;;;;;5053080;28;20563;-90
2022/07/08 08:53:58;;;;;;;5.10;2.23;;;23.00;62.40;;;;;;5044593;28;20213;-89
2022/07/08 08:56:27;;;;;;;7.53;2.77;;;23.20;61.50;;;;;;5051288;28;20302;-90
2022/07/08 08:58:55;;;;;;;8.53;3.03;;;23.40;62.10;;;;;;5052077;28;20208;-88
2022/07/08 09:01:24;;;;;;;10.47;3.13;;;23.60;60.40;;;;;;5049555;28;21182;-87
2022/07/08 09:03:53;;;;;;;8.93;3.40;;;23.90;60.50;;;;;;5049007;28;20220;-86
2022/07/08 09:06:20;;;;;;;9.33;4.13;;;24.10;59.80;;;;;;5048700;28;20232;-88
2022/07/08 09:08:47;;;;;;;12.57;4.03;;;24.30;59.60;;;;;;5047152;28;20199;-87
2022/07/08 09:11:17;;;;;;;10.80;2.87;;;24.50;59.30;;;;;;5044028;28;20289;-88
2022/07/08 09:13:43;;;;;;;6.87;2.93;;;24.70;59.20;;;;;;5048114;28;20215;-89
2022/07/08 09:16:11;;;;;;;7.67;3.17;;;24.90;58.80;;;;;;5049794;28;20230;-87
2022/07/08 09:18:39;;;;;;;5.43;2.47;;;25.20;58.40;;;;;;5068430;28;20179;-87
2022/07/08 09:21:11;;;;;;;9.20;3.77;;;25.40;57.00;;;;;;5047127;28;20198;-89
2022/07/08 09:23:39;;;;;;;8.80;3.60;;;25.50;56.30;;;;;;5048223;28;20286;-89
2022/07/08 09:26:08;;;;;;;6.33;3.03;;;25.70;56.30;;;;;;5057731;28;20308;-89
2022/07/08 09:28:36;;;;;;;8.67;3.17;;;25.90;54.60;;;;;;5048927;28;20212;-88
2022/07/08 09:31:05;;;;;;;12.43;3.37;;;26.00;55.70;;;;;;5048757;28;20634;-86
2022/07/08 09:33:33;;;;;;;6.27;2.67;;;26.10;55.50;;;;;;5042596;28;20185;-90
2022/07/08 09:36:01;;;;;;;9.27;3.80;;;26.30;55.80;;;;;;5052928;28;20253;-90
2022/07/08 09:38:32;;;;;;;10.47;3.60;;;26.40;56.00;;;;;;5057443;28;20258;-92
2022/07/08 09:41:02;;;;;;;8.37;3.63;;;26.60;55.40;;;;;;5034437;28;20279;-90
2022/07/08 09:43:31;;;;;;;7.93;3.20;;;26.70;55.50;;;;;;5046509;28;20215;-86
2022/07/08 09:46:04;;;;;;;7.00;2.80;;;26.90;54.70;;;;;;5047998;28;20263;-86
2022/07/08 09:48:31;;;;;;;8.13;3.90;;;27.10;53.60;;;;;;5047887;28;20204;-88
2022/07/08 09:51:00;;;;;;;9.10;3.20;;;27.20;54.30;;;;;;5048613;28;20633;-84
2022/07/08 09:53:29;;;;;;;7.50;3.57;;;27.30;52.80;;;;;;5047614;28;20243;-87
2022/07/08 09:55:58;;;;;;;7.47;2.63;;;27.50;53.50;;;;;;5049638;28;20204;-87
2022/07/08 09:58:28;;;;;;;8.47;3.37;;;27.60;52.70;;;;;;5042671;28;20201;-86
2022/07/08 10:00:57;;;;;;;5.93;2.80;;;27.70;52.50;;;;;;5047145;28;20627;-88
2022/07/08 10:03:25;;;;;;;5.30;2.47;;;27.80;52.50;;;;;;5051399;28;20958;-87
2022/07/08 10:05:52;;;;;;;11.63;4.20;;;27.90;52.60;;;;;;5050257;28;20324;-90
2022/07/08 10:08:23;;;;;;;11.03;4.43;;;28.00;52.50;;;;;;5047102;28;20240;-89
2022/07/08 10:10:56;;;;;;;7.30;2.93;;;28.10;51.90;;;;;;5034947;28;20204;-88
2022/07/08 10:13:25;;;;;;;7.40;3.00;;;28.20;52.00;;;;;;5040377;28;20196;-88
2022/07/08 10:15:57;;;;;;;6.77;2.90;;;28.40;52.20;;;;;;5036762;28;20270;-87
2022/07/08 10:18:32;;;;;;;6.20;2.77;;;28.60;51.40;;;;;;5043435;28;20291;-87
2022/07/08 10:21:01;;;;;;;8.83;3.27;;;28.70;51.70;;;;;;5047632;28;20305;-87
2022/07/08 10:23:30;;;;;;;5.67;2.80;;;28.80;51.50;;;;;;5045445;28;20605;-86
2022/07/08 10:26:02;;;;;;;6.87;2.77;;;29.00;51.30;;;;;;5046884;28;20353;-87
2022/07/08 10:28:35;;;;;;;7.33;3.40;;;29.20;51.10;;;;;;5044570;28;20204;-86
2022/07/08 10:31:04;;;;;;;9.63;3.67;;;29.30;50.30;;;;;;5043986;28;20244;-86
2022/07/08 10:33:36;;;;;;;7.43;3.10;;;29.30;50.00;;;;;;5043978;28;20236;-86
2022/07/08 10:36:07;;;;;;;8.63;4.10;;;29.50;50.40;;;;;;5045647;28;20251;-88
2022/07/08 10:38:38;;;;;;;8.97;3.83;;;29.60;49.20;;;;;;5044892;28;20208;-89
2022/07/08 10:41:09;;;;;;;3.00;1.53;;;29.60;48.90;;;;;;5049001;28;20311;-87
2022/07/08 10:43:37;;;;;;;5.80;2.37;;;29.80;48.60;;;;;;5046757;28;20204;-90
2022/07/08 10:46:12;;;;;;;4.83;1.83;;;29.80;48.60;;;;;;5045165;28;20314;-87
2022/07/08 10:48:53;;;;;;;7.30;3.53;;;29.90;47.70;;;;;;5045524;28;20210;-86
2022/07/08 10:51:57;;;;;;;6.30;3.13;;;30.00;47.70;;;;;;5046869;28;20705;-86
2022/07/08 10:54:28;;;;;;;6.50;2.77;;;30.10;47.20;;;;;;5050627;28;20234;-87
2022/07/08 10:56:59;;;;;;;9.10;3.93;;;30.20;48.10;;;;;;5054727;28;20203;-86
2022/07/08 10:59:31;;;;;;;3.90;2.13;;;30.30;47.70;;;;;;5056237;28;20203;-88
2022/07/08 11:02:01;;;;;;;6.93;3.20;;;30.40;47.90;;;;;;5051338;28;20326;-88
2022/07/08 11:04:32;;;;;;;8.03;3.10;;;30.50;47.20;;;;;;5050484;28;20287;-87
2022/07/08 11:07:23;;;;;;;9.13;3.37;;;30.50;46.50;;;;;;5052921;28;20216;-89
2022/07/08 11:09:51;;;;;;;4.07;2.20;;;30.60;46.30;;;;;;5043631;28;20303;-87
2022/07/08 11:12:21;;;;;;;8.90;3.50;;;30.70;47.20;;;;;;5051282;28;20273;-87
2022/07/08 11:14:50;;;;;;;7.65;3.60;;;30.80;47.20;;;;;;5054270;28;20306;-87
2022/07/08 11:17:17;;;;;;;8.47;3.57;;;30.80;46.60;;;;;;5048940;28;20679;-88
2022/07/08 11:19:44;;;;;;;5.00;2.40;;;30.90;46.20;;;;;;5052894;28;20628;-87
2022/07/08 11:22:12;;;;;;;6.72;2.95;;;30.90;46.20;;;;;;5052541;28;20610;-90
2022/07/08 11:24:40;;;;;;;5.18;2.63;;;31.00;46.20;;;;;;5054953;28;20711;-87
2022/07/08 11:27:07;;;;;;;6.68;3.40;;;31.00;45.50;;;;;;5047641;28;22261;-90
2022/07/08 11:29:36;;;;;;;9.00;3.75;;;31.10;46.20;;;;;;5048697;28;20239;-91
2022/07/08 11:32:06;;;;;;;5.68;2.72;;;31.10;45.70;;;;;;5049688;28;20206;-88
2022/07/08 11:34:35;;;;;;;8.07;3.17;;;31.20;45.90;;;;;;5051468;28;20575;-88
2022/07/08 11:37:03;;;;;;;5.53;2.75;;;31.20;45.60;;;;;;5049709;28;20254;-87
2022/07/08 11:39:31;;;;;;;6.43;2.90;;;31.20;45.80;;;;;;5066636;28;20207;-89
2022/07/08 11:41:58;;;;;;;7.63;3.22;;;31.30;45.30;;;;;;5051905;28;20255;-88
2022/07/08 11:44:28;;;;;;;7.03;2.97;;;31.30;45.30;;;;;;5048122;28;20290;-90
2022/07/08 11:46:57;;;;;;;12.27;3.97;;;31.30;45.30;;;;;;5052800;28;20329;-88
2022/07/08 11:49:24;;;;;;;11.88;5.32;;;31.40;45.40;;;;;;5051432;28;20214;-86
2022/07/08 11:51:53;;;;;;;6.38;3.13;;;31.40;45.30;;;;;;5050427;28;20204;-87
2022/07/08 11:54:23;;;;;;;7.40;2.72;;;31.40;45.00;;;;;;5052256;28;20218;-87
2022/07/08 11:56:55;;;;;;;7.45;3.42;;;31.50;45.30;;;;;;5053198;28;20215;-87
2022/07/08 11:59:23;;;;;;;5.28;2.67;;;31.60;44.90;;;;;;5050468;28;20732;-87
2022/07/08 12:01:51;;;;;;;5.90;2.88;;;31.70;46.10;;;;;;5050840;28;20695;-87
2022/07/08 12:04:19;;;;;;;6.32;2.78;;;31.70;45.40;;;;;;5051852;28;20664;-87
2022/07/08 12:06:47;;;;;;;6.22;2.40;;;31.80;44.80;;;;;;5052797;28;20263;-87
2022/07/08 12:09:15;;;;;;;8.55;3.25;;;31.90;45.90;;;;;;5049084;28;20210;-87
2022/07/08 12:11:44;;;;;;;9.45;3.55;;;31.90;44.50;;;;;;5047373;28;20235;-87
2022/07/08 12:14:11;;;;;;;6.40;3.17;;;32.00;44.50;;;;;;5048708;28;20238;-88
2022/07/08 12:16:44;;;;;;;16.00;4.60;;;32.10;44.30;;;;;;5047463;28;20200;-86
2022/07/08 12:19:29;;;;;;;5.07;2.53;;;32.10;44.40;;;;;;5049907;28;20207;-86
2022/07/08 12:21:58;;;;;;;6.05;2.58;;;32.20;43.70;;;;;;5047855;28;20210;-87
2022/07/08 12:24:27;;;;;;;8.63;3.58;;;32.20;44.20;;;;;;5042115;28;20244;-89
2022/07/08 12:26:55;;;;;;;9.35;4.00;;;32.30;43.90;;;;;;5035371;28;20286;-86
2022/07/08 12:29:22;;;;;;;9.52;4.40;;;32.30;44.00;;;;;;5047193;28;20207;-88
2022/07/08 12:31:50;;;;;;;7.25;3.05;;;32.40;43.80;;;;;;5046701;28;20327;-86
2022/07/08 12:34:20;;;;;;;7.50;3.10;;;32.40;43.60;;;;;;5048734;28;20207;-87
2022/07/08 12:36:49;;;;;;;5.22;2.58;;;32.50;43.30;;;;;;5048252;28;20262;-87
2022/07/08 12:39:17;;;;;;;7.20;3.13;;;32.50;43.30;;;;;;5049608;28;20239;-87
2022/07/08 12:41:47;;;;;;;7.63;3.25;;;32.50;43.50;;;;;;5049084;28;20261;-87
2022/07/08 12:44:35;;;;;;;5.70;3.13;;;32.70;43.10;;;;;;5048108;28;20200;-87
2022/07/08 12:47:03;;;;;;;7.68;3.20;;;32.70;42.90;;;;;;5048237;28;20313;-89
2022/07/08 12:49:31;;;;;;;7.65;2.92;;;32.80;43.40;;;;;;5047575;28;20257;-86
2022/07/08 12:52:01;;;;;;;5.35;2.70;;;32.80;42.50;;;;;;5050381;28;20261;-87
2022/07/08 12:54:28;;;;;;;8.35;3.88;;;32.90;42.40;;;;;;5048493;28;20250;-87